sensor_id;sensor_type;location;lat;lon;timestamp;temperature;humidity
43049;DHT22;28673;44.412;11.918;2023-04-15T00:01:23;9.00;97.90
43049;DHT22;28673;44.412;11.918;2023-04-15T00:03:53;8.90;97.90
43049;DHT22;28673;44.412;11.918;2023-04-15T00:06:20;8.90;98.00
43049;DHT22;28673;44.412;11.918;2023-04-15T00:08:46;8.80;97.90
43049;DHT22;28673;44.412;11.918;2023-04-15T00:11:13;8.80;98.10
43049;DHT22;28673;44.412;11.918;2023-04-15T00:13:39;8.80;98.20
43049;DHT22;28673;44.412;11.918;2023-04-15T00:16:06;8.70;98.20
43049;DHT22;28673;44.412;11.918;2023-04-15T00:18:36;8.80;98.20
43049;DHT22;28673;44.412;11.918;2023-04-15T00:21:03;8.70;98.30
43049;DHT22;28673;44.412;11.918;2023-04-15T00:23:29;8.70;98.30
43049;DHT22;28673;44.412;11.918;2023-04-15T00:25:55;8.70;98.40
43049;DHT22;28673;44.412;11.918;2023-04-15T00:28:21;8.70;98.50
43049;DHT22;28673;44.412;11.918;2023-04-15T00:30:47;8.60;98.60
43049;DHT22;28673;44.412;11.918;2023-04-15T00:33:13;8.60;98.60
43049;DHT22;28673;44.412;11.918;2023-04-15T00:35:39;8.60;98.70
43049;DHT22;28673;44.412;11.918;2023-04-15T00:38:06;8.60;98.80
43049;DHT22;28673;44.412;11.918;2023-04-15T00:40:32;8.60;98.80
43049;DHT22;28673;44.412;11.918;2023-04-15T00:42:59;8.60;98.90
43049;DHT22;28673;44.412;11.918;2023-04-15T00:45:25;8.60;98.90
43049;DHT22;28673;44.412;11.918;2023-04-15T00:47:53;8.60;98.90
43049;DHT22;28673;44.412;11.918;2023-04-15T00:50:19;8.60;99.00
43049;DHT22;28673;44.412;11.918;2023-04-15T00:52:44;8.50;99.00
43049;DHT22;28673;44.412;11.918;2023-04-15T00:55:11;8.50;99.10
43049;DHT22;28673;44.412;11.918;2023-04-15T00:57:38;8.50;99.30
43049;DHT22;28673;44.412;11.918;2023-04-15T01:00:05;8.50;99.20
43049;DHT22;28673;44.412;11.918;2023-04-15T01:02:33;8.50;99.20
43049;DHT22;28673;44.412;11.918;2023-04-15T01:05:01;8.50;99.40
43049;DHT22;28673;44.412;11.918;2023-04-15T01:07:27;8.50;99.40
43049;DHT22;28673;44.412;11.918;2023-04-15T01:09:53;8.50;99.80
43049;DHT22;28673;44.412;11.918;2023-04-15T01:12:20;8.40;99.70
43049;DHT22;28673;44.412;11.918;2023-04-15T01:14:45;8.40;99.90
43049;DHT22;28673;44.412;11.918;2023-04-15T01:17:11;8.40;99.80
43049;DHT22;28673;44.412;11.918;2023-04-15T01:19:39;8.40;99.80
43049;DHT22;28673;44.412;11.918;2023-04-15T01:22:05;8.40;99.90
43049;DHT22;28673;44.412;11.918;2023-04-15T01:24:32;8.40;99.90
43049;DHT22;28673;44.412;11.918;2023-04-15T01:26:58;8.40;99.90
43049;DHT22;28673;44.412;11.918;2023-04-15T01:29:24;8.40;99.90
43049;DHT22;28673;44.412;11.918;2023-04-15T01:31:54;8.40;99.90
43049;DHT22;28673;44.412;11.918;2023-04-15T01:34:21;8.40;99.90
43049;DHT22;28673;44.412;11.918;2023-04-15T01:36:47;8.40;99.90
43049;DHT22;28673;44.412;11.918;2023-04-15T01:39:13;8.40;99.90
43049;DHT22;28673;44.412;11.918;2023-04-15T01:41:39;8.40;99.90
43049;DHT22;28673;44.412;11.918;2023-04-15T01:44:07;8.40;99.90
43049;DHT22;28673;44.412;11.918;2023-04-15T01:46:33;8.40;99.90
43049;DHT22;28673;44.412;11.918;2023-04-15T01:48:59;8.40;99.90
43049;DHT22;28673;44.412;11.918;2023-04-15T01:51:25;8.40;99.90
43049;DHT22;28673;44.412;11.918;2023-04-15T01:53:52;8.40;99.90
43049;DHT22;28673;44.412;11.918;2023-04-15T01:56:18;8.40;99.90
43049;DHT22;28673;44.412;11.918;2023-04-15T01:58:44;8.40;99.90
43049;DHT22;28673;44.412;11.918;2023-04-15T02:01:10;8.40;99.90
43049;DHT22;28673;44.412;11.918;2023-04-15T02:03:37;8.30;99.90
43049;DHT22;28673;44.412;11.918;2023-04-15T02:06:04;8.30;99.90
43049;DHT22;28673;44.412;11.918;2023-04-15T02:08:30;8.30;99.90
43049;DHT22;28673;44.412;11.918;2023-04-15T02:10:57;8.30;99.90
43049;DHT22;28673;44.412;11.918;2023-04-15T02:13:24;8.30;99.90
43049;DHT22;28673;44.412;11.918;2023-04-15T02:15:50;8.30;99.90
43049;DHT22;28673;44.412;11.918;2023-04-15T02:18:18;8.30;99.90
43049;DHT22;28673;44.412;11.918;2023-04-15T02:20:44;8.40;99.90
43049;DHT22;28673;44.412;11.918;2023-04-15T02:23:10;8.40;99.90
43049;DHT22;28673;44.412;11.918;2023-04-15T02:25:36;8.40;99.90
43049;DHT22;28673;44.412;11.918;2023-04-15T02:28:05;8.40;99.90
43049;DHT22;28673;44.412;11.918;2023-04-15T02:30:31;8.40;99.90
43049;DHT22;28673;44.412;11.918;2023-04-15T02:33:01;8.40;99.90
43049;DHT22;28673;44.412;11.918;2023-04-15T02:35:27;8.40;99.90
43049;DHT22;28673;44.412;11.918;2023-04-15T02:37:54;8.40;99.90
43049;DHT22;28673;44.412;11.918;2023-04-15T02:40:20;8.40;99.90
43049;DHT22;28673;44.412;11.918;2023-04-15T02:42:46;8.40;99.90
43049;DHT22;28673;44.412;11.918;2023-04-15T02:45:14;8.40;99.90
43049;DHT22;28673;44.412;11.918;2023-04-15T02:47:42;8.40;99.90
43049;DHT22;28673;44.412;11.918;2023-04-15T02:50:10;8.50;99.90
43049;DHT22;28673;44.412;11.918;2023-04-15T02:52:41;8.50;99.90
43049;DHT22;28673;44.412;11.918;2023-04-15T02:55:08;8.50;99.90
43049;DHT22;28673;44.412;11.918;2023-04-15T02:57:35;8.50;99.90
43049;DHT22;28673;44.412;11.918;2023-04-15T03:00:07;8.50;99.90
43049;DHT22;28673;44.412;11.918;2023-04-15T03:02:37;8.50;99.90
43049;DHT22;28673;44.412;11.918;2023-04-15T03:05:04;8.50;99.90
43049;DHT22;28673;44.412;11.918;2023-04-15T03:07:33;8.40;99.90
43049;DHT22;28673;44.412;11.918;2023-04-15T03:10:00;8.40;99.90
43049;DHT22;28673;44.412;11.918;2023-04-15T03:12:26;8.40;99.90
43049;DHT22;28673;44.412;11.918;2023-04-15T03:14:54;8.40;99.90
43049;DHT22;28673;44.412;11.918;2023-04-15T03:17:27;8.40;99.90
43049;DHT22;28673;44.412;11.918;2023-04-15T03:19:53;8.30;99.90
43049;DHT22;28673;44.412;11.918;2023-04-15T03:22:19;8.30;99.90
43049;DHT22;28673;44.412;11.918;2023-04-15T03:24:45;8.30;99.90
43049;DHT22;28673;44.412;11.918;2023-04-15T03:27:11;8.30;99.90
43049;DHT22;28673;44.412;11.918;2023-04-15T03:29:38;8.30;99.90
43049;DHT22;28673;44.412;11.918;2023-04-15T03:32:04;8.30;99.90
43049;DHT22;28673;44.412;11.918;2023-04-15T03:34:33;8.30;99.90
43049;DHT22;28673;44.412;11.918;2023-04-15T03:36:59;8.20;99.90
43049;DHT22;28673;44.412;11.918;2023-04-15T03:39:25;8.20;99.90
43049;DHT22;28673;44.412;11.918;2023-04-15T03:41:50;8.20;99.90
43049;DHT22;28673;44.412;11.918;2023-04-15T03:44:16;8.30;99.90
43049;DHT22;28673;44.412;11.918;2023-04-15T03:46:42;8.30;99.90
43049;DHT22;28673;44.412;11.918;2023-04-15T03:49:08;8.30;99.90
43049;DHT22;28673;44.412;11.918;2023-04-15T03:51:33;8.30;99.90
43049;DHT22;28673;44.412;11.918;2023-04-15T03:54:00;8.30;99.90
43049;DHT22;28673;44.412;11.918;2023-04-15T03:56:26;8.40;99.90
43049;DHT22;28673;44.412;11.918;2023-04-15T03:58:52;8.40;99.90
43049;DHT22;28673;44.412;11.918;2023-04-15T04:01:18;8.40;99.90
43049;DHT22;28673;44.412;11.918;2023-04-15T04:03:44;8.50;99.90
43049;DHT22;28673;44.412;11.918;2023-04-15T04:06:10;8.50;99.90
43049;DHT22;28673;44.412;11.918;2023-04-15T04:08:37;8.50;99.90
43049;DHT22;28673;44.412;11.918;2023-04-15T04:11:03;8.60;99.90
43049;DHT22;28673;44.412;11.918;2023-04-15T04:13:28;8.60;99.90
43049;DHT22;28673;44.412;11.918;2023-04-15T04:15:54;8.60;99.90
43049;DHT22;28673;44.412;11.918;2023-04-15T04:18:20;8.70;99.90
43049;DHT22;28673;44.412;11.918;2023-04-15T04:20:46;8.70;99.90
43049;DHT22;28673;44.412;11.918;2023-04-15T04:23:12;8.70;99.90
43049;DHT22;28673;44.412;11.918;2023-04-15T04:25:38;8.60;99.90
43049;DHT22;28673;44.412;11.918;2023-04-15T04:28:04;8.60;99.90
43049;DHT22;28673;44.412;11.918;2023-04-15T04:30:29;8.60;99.90
43049;DHT22;28673;44.412;11.918;2023-04-15T04:32:56;8.60;99.90
43049;DHT22;28673;44.412;11.918;2023-04-15T04:35:22;8.50;99.90
43049;DHT22;28673;44.412;11.918;2023-04-15T04:37:47;8.50;99.90
43049;DHT22;28673;44.412;11.918;2023-04-15T04:40:13;8.50;99.90
43049;DHT22;28673;44.412;11.918;2023-04-15T04:42:39;8.50;99.90
43049;DHT22;28673;44.412;11.918;2023-04-15T04:45:05;8.40;99.90
43049;DHT22;28673;44.412;11.918;2023-04-15T04:47:31;8.40;99.90
43049;DHT22;28673;44.412;11.918;2023-04-15T04:49:57;8.40;99.90
43049;DHT22;28673;44.412;11.918;2023-04-15T04:52:23;8.40;99.90
43049;DHT22;28673;44.412;11.918;2023-04-15T04:54:49;8.40;99.90
43049;DHT22;28673;44.412;11.918;2023-04-15T04:57:15;8.40;99.90
43049;DHT22;28673;44.412;11.918;2023-04-15T04:59:40;8.40;99.90
43049;DHT22;28673;44.412;11.918;2023-04-15T05:02:06;8.40;99.90
43049;DHT22;28673;44.412;11.918;2023-04-15T05:04:32;8.40;99.90
43049;DHT22;28673;44.412;11.918;2023-04-15T05:06:58;8.40;99.90
43049;DHT22;28673;44.412;11.918;2023-04-15T05:09:24;8.40;99.90
43049;DHT22;28673;44.412;11.918;2023-04-15T05:11:50;8.40;99.90
43049;DHT22;28673;44.412;11.918;2023-04-15T05:14:16;8.50;99.90
43049;DHT22;28673;44.412;11.918;2023-04-15T05:16:42;8.50;99.90
43049;DHT22;28673;44.412;11.918;2023-04-15T05:19:07;8.60;99.90
43049;DHT22;28673;44.412;11.918;2023-04-15T05:21:33;8.60;99.90
43049;DHT22;28673;44.412;11.918;2023-04-15T05:24:00;8.70;99.90
43049;DHT22;28673;44.412;11.918;2023-04-15T05:26:26;8.80;99.90
43049;DHT22;28673;44.412;11.918;2023-04-15T05:28:52;8.80;99.90
43049;DHT22;28673;44.412;11.918;2023-04-15T05:31:21;8.80;99.90
43049;DHT22;28673;44.412;11.918;2023-04-15T05:33:47;8.90;99.90
43049;DHT22;28673;44.412;11.918;2023-04-15T05:36:12;8.90;99.90
43049;DHT22;28673;44.412;11.918;2023-04-15T05:38:38;8.90;99.90
43049;DHT22;28673;44.412;11.918;2023-04-15T05:41:04;9.00;99.90
43049;DHT22;28673;44.412;11.918;2023-04-15T05:43:30;9.00;99.90
43049;DHT22;28673;44.412;11.918;2023-04-15T05:45:56;9.00;99.90
43049;DHT22;28673;44.412;11.918;2023-04-15T05:48:22;9.10;99.90
43049;DHT22;28673;44.412;11.918;2023-04-15T05:50:48;9.10;99.90
43049;DHT22;28673;44.412;11.918;2023-04-15T05:53:17;9.10;99.90
43049;DHT22;28673;44.412;11.918;2023-04-15T05:55:43;9.20;99.90
43049;DHT22;28673;44.412;11.918;2023-04-15T05:58:09;9.20;99.90
43049;DHT22;28673;44.412;11.918;2023-04-15T06:00:34;9.30;99.90
43049;DHT22;28673;44.412;11.918;2023-04-15T06:03:01;9.30;99.90
43049;DHT22;28673;44.412;11.918;2023-04-15T06:05:27;9.40;99.90
43049;DHT22;28673;44.412;11.918;2023-04-15T06:07:53;9.50;99.90
43049;DHT22;28673;44.412;11.918;2023-04-15T06:10:19;9.60;99.90
43049;DHT22;28673;44.412;11.918;2023-04-15T06:12:45;9.80;99.90
43049;DHT22;28673;44.412;11.918;2023-04-15T06:15:13;9.90;99.90
43049;DHT22;28673;44.412;11.918;2023-04-15T06:17:39;10.00;99.90
43049;DHT22;28673;44.412;11.918;2023-04-15T06:20:05;10.20;99.90
43049;DHT22;28673;44.412;11.918;2023-04-15T06:22:33;10.30;99.90
43049;DHT22;28673;44.412;11.918;2023-04-15T06:24:58;10.40;99.90
43049;DHT22;28673;44.412;11.918;2023-04-15T06:27:24;10.50;99.90
43049;DHT22;28673;44.412;11.918;2023-04-15T06:29:50;10.70;99.90
43049;DHT22;28673;44.412;11.918;2023-04-15T06:32:16;10.80;99.90
43049;DHT22;28673;44.412;11.918;2023-04-15T06:34:42;10.90;99.90
43049;DHT22;28673;44.412;11.918;2023-04-15T06:37:10;11.00;99.90
43049;DHT22;28673;44.412;11.918;2023-04-15T06:39:40;11.10;99.90
43049;DHT22;28673;44.412;11.918;2023-04-15T06:42:06;11.20;99.90
43049;DHT22;28673;44.412;11.918;2023-04-15T06:44:32;11.30;99.90
43049;DHT22;28673;44.412;11.918;2023-04-15T06:46:58;11.40;99.90
43049;DHT22;28673;44.412;11.918;2023-04-15T06:49:24;11.50;99.90
43049;DHT22;28673;44.412;11.918;2023-04-15T06:51:50;11.60;99.90
43049;DHT22;28673;44.412;11.918;2023-04-15T06:54:16;11.80;99.90
43049;DHT22;28673;44.412;11.918;2023-04-15T06:56:42;11.80;99.90
43049;DHT22;28673;44.412;11.918;2023-04-15T06:59:07;12.00;99.90
43049;DHT22;28673;44.412;11.918;2023-04-15T07:01:33;12.10;99.90
43049;DHT22;28673;44.412;11.918;2023-04-15T07:03:59;12.10;99.90
43049;DHT22;28673;44.412;11.918;2023-04-15T07:06:25;12.20;99.90
43049;DHT22;28673;44.412;11.918;2023-04-15T07:08:52;12.30;99.90
43049;DHT22;28673;44.412;11.918;2023-04-15T07:11:19;12.40;99.90
43049;DHT22;28673;44.412;11.918;2023-04-15T07:13:45;12.50;99.90
43049;DHT22;28673;44.412;11.918;2023-04-15T07:16:11;12.60;99.90
43049;DHT22;28673;44.412;11.918;2023-04-15T07:18:37;12.60;99.90
43049;DHT22;28673;44.412;11.918;2023-04-15T07:21:03;12.80;99.90
43049;DHT22;28673;44.412;11.918;2023-04-15T07:23:29;12.90;99.90
43049;DHT22;28673;44.412;11.918;2023-04-15T07:25:55;13.00;99.70
43049;DHT22;28673;44.412;11.918;2023-04-15T07:28:22;13.10;99.90
43049;DHT22;28673;44.412;11.918;2023-04-15T07:30:47;13.20;99.90
43049;DHT22;28673;44.412;11.918;2023-04-15T07:33:13;13.30;99.80
43049;DHT22;28673;44.412;11.918;2023-04-15T07:35:39;13.40;99.30
43049;DHT22;28673;44.412;11.918;2023-04-15T07:38:05;13.50;99.50
43049;DHT22;28673;44.412;11.918;2023-04-15T07:40:31;13.60;99.10
43049;DHT22;28673;44.412;11.918;2023-04-15T07:42:57;13.80;98.90
43049;DHT22;28673;44.412;11.918;2023-04-15T07:45:24;13.90;98.30
43049;DHT22;28673;44.412;11.918;2023-04-15T07:47:52;14.00;98.80
43049;DHT22;28673;44.412;11.918;2023-04-15T07:50:21;14.10;98.80
43049;DHT22;28673;44.412;11.918;2023-04-15T07:52:51;14.30;98.50
43049;DHT22;28673;44.412;11.918;2023-04-15T07:55:18;14.50;98.30
43049;DHT22;28673;44.412;11.918;2023-04-15T07:57:46;14.70;98.10
43049;DHT22;28673;44.412;11.918;2023-04-15T08:00:12;14.90;98.10
43049;DHT22;28673;44.412;11.918;2023-04-15T08:02:39;15.10;98.00
43049;DHT22;28673;44.412;11.918;2023-04-15T08:05:06;15.30;97.40
43049;DHT22;28673;44.412;11.918;2023-04-15T08:07:32;15.60;97.30
43049;DHT22;28673;44.412;11.918;2023-04-15T08:09:58;15.80;97.10
43049;DHT22;28673;44.412;11.918;2023-04-15T08:12:24;16.10;96.80
43049;DHT22;28673;44.412;11.918;2023-04-15T08:14:50;16.30;96.50
43049;DHT22;28673;44.412;11.918;2023-04-15T08:17:16;16.60;96.00
43049;DHT22;28673;44.412;11.918;2023-04-15T08:19:42;16.80;94.10
43049;DHT22;28673;44.412;11.918;2023-04-15T08:22:09;17.00;94.60
43049;DHT22;28673;44.412;11.918;2023-04-15T08:24:36;17.20;94.70
43049;DHT22;28673;44.412;11.918;2023-04-15T08:27:03;17.50;94.50
43049;DHT22;28673;44.412;11.918;2023-04-15T08:29:31;17.70;93.90
43049;DHT22;28673;44.412;11.918;2023-04-15T08:31:59;18.00;93.80
43049;DHT22;28673;44.412;11.918;2023-04-15T08:34:28;18.20;93.50
43049;DHT22;28673;44.412;11.918;2023-04-15T08:36:54;18.40;93.30
43049;DHT22;28673;44.412;11.918;2023-04-15T08:39:21;18.60;92.80
43049;DHT22;28673;44.412;11.918;2023-04-15T08:42:00;18.80;92.70
43049;DHT22;28673;44.412;11.918;2023-04-15T08:44:35;18.90;91.30
43049;DHT22;28673;44.412;11.918;2023-04-15T08:47:07;19.00;90.50
43049;DHT22;28673;44.412;11.918;2023-04-15T08:49:36;19.10;90.50
43049;DHT22;28673;44.412;11.918;2023-04-15T08:52:03;19.30;91.10
43049;DHT22;28673;44.412;11.918;2023-04-15T08:54:30;19.40;91.30
43049;DHT22;28673;44.412;11.918;2023-04-15T08:56:57;19.60;91.30
43049;DHT22;28673;44.412;11.918;2023-04-15T08:59:23;19.90;90.60
43049;DHT22;28673;44.412;11.918;2023-04-15T09:01:49;20.10;90.50
43049;DHT22;28673;44.412;11.918;2023-04-15T09:04:16;20.20;90.00
43049;DHT22;28673;44.412;11.918;2023-04-15T09:06:43;20.30;90.00
43049;DHT22;28673;44.412;11.918;2023-04-15T09:09:09;20.30;88.80
43049;DHT22;28673;44.412;11.918;2023-04-15T09:11:34;20.40;86.80
43049;DHT22;28673;44.412;11.918;2023-04-15T09:14:01;20.50;86.50
43049;DHT22;28673;44.412;11.918;2023-04-15T09:16:27;20.60;88.00
43049;DHT22;28673;44.412;11.918;2023-04-15T09:18:53;20.60;86.30
43049;DHT22;28673;44.412;11.918;2023-04-15T09:21:19;20.60;86.70
43049;DHT22;28673;44.412;11.918;2023-04-15T09:23:59;20.60;85.70
43049;DHT22;28673;44.412;11.918;2023-04-15T09:26:32;20.70;86.50
43049;DHT22;28673;44.412;11.918;2023-04-15T09:29:08;20.90;87.00
43049;DHT22;28673;44.412;11.918;2023-04-15T09:31:38;21.10;87.00
43049;DHT22;28673;44.412;11.918;2023-04-15T09:34:05;21.30;83.90
43049;DHT22;28673;44.412;11.918;2023-04-15T09:36:57;21.40;84.40
43049;DHT22;28673;44.412;11.918;2023-04-15T09:39:23;21.60;80.30
43049;DHT22;28673;44.412;11.918;2023-04-15T09:42:13;21.70;83.90
43049;DHT22;28673;44.412;11.918;2023-04-15T09:44:39;21.70;82.00
43049;DHT22;28673;44.412;11.918;2023-04-15T09:47:05;21.80;81.30
43049;DHT22;28673;44.412;11.918;2023-04-15T09:49:30;22.10;82.80
43049;DHT22;28673;44.412;11.918;2023-04-15T09:51:59;22.30;82.60
43049;DHT22;28673;44.412;11.918;2023-04-15T09:54:35;22.50;82.50
43049;DHT22;28673;44.412;11.918;2023-04-15T09:57:08;22.70;80.90
43049;DHT22;28673;44.412;11.918;2023-04-15T09:59:37;22.80;80.70
43049;DHT22;28673;44.412;11.918;2023-04-15T10:02:05;22.90;80.70
43049;DHT22;28673;44.412;11.918;2023-04-15T10:04:34;23.10;79.90
43049;DHT22;28673;44.412;11.918;2023-04-15T10:07:04;23.30;80.30
43049;DHT22;28673;44.412;11.918;2023-04-15T10:09:30;23.50;80.00
43049;DHT22;28673;44.412;11.918;2023-04-15T10:11:58;23.70;79.70
43049;DHT22;28673;44.412;11.918;2023-04-15T10:14:24;23.90;79.70
43049;DHT22;28673;44.412;11.918;2023-04-15T10:16:55;24.10;79.10
43049;DHT22;28673;44.412;11.918;2023-04-15T10:19:24;24.30;79.50
43049;DHT22;28673;44.412;11.918;2023-04-15T10:21:51;24.50;79.30
43049;DHT22;28673;44.412;11.918;2023-04-15T10:24:18;24.50;78.60
43049;DHT22;28673;44.412;11.918;2023-04-15T10:26:44;24.70;78.40
43049;DHT22;28673;44.412;11.918;2023-04-15T10:29:10;24.60;77.80
43049;DHT22;28673;44.412;11.918;2023-04-15T10:31:37;24.60;76.40
43049;DHT22;28673;44.412;11.918;2023-04-15T10:34:07;24.40;74.40
43049;DHT22;28673;44.412;11.918;2023-04-15T10:36:34;24.50;76.00
43049;DHT22;28673;44.412;11.918;2023-04-15T10:39:00;24.40;74.90
43049;DHT22;28673;44.412;11.918;2023-04-15T10:41:27;24.30;75.60
43049;DHT22;28673;44.412;11.918;2023-04-15T10:44:02;24.40;76.50
43049;DHT22;28673;44.412;11.918;2023-04-15T10:49:15;24.60;74.50
43049;DHT22;28673;44.412;11.918;2023-04-15T10:51:44;24.60;73.90
43049;DHT22;28673;44.412;11.918;2023-04-15T10:56:41;24.70;72.70
43049;DHT22;28673;44.412;11.918;2023-04-15T10:59:08;24.80;73.90
43049;DHT22;28673;44.412;11.918;2023-04-15T11:01:55;24.80;72.40
43049;DHT22;28673;44.412;11.918;2023-04-15T11:04:56;24.70;71.60
43049;DHT22;28673;44.412;11.918;2023-04-15T11:07:36;24.80;74.80
43049;DHT22;28673;44.412;11.918;2023-04-15T11:13:13;25.10;72.90
43049;DHT22;28673;44.412;11.918;2023-04-15T11:15:42;25.40;72.30
43049;DHT22;28673;44.412;11.918;2023-04-15T11:18:15;25.30;71.70
43049;DHT22;28673;44.412;11.918;2023-04-15T11:20:47;25.40;71.00
43049;DHT22;28673;44.412;11.918;2023-04-15T11:23:14;25.60;70.10
43049;DHT22;28673;44.412;11.918;2023-04-15T11:25:41;25.70;70.70
43049;DHT22;28673;44.412;11.918;2023-04-15T11:28:07;26.00;71.00
43049;DHT22;28673;44.412;11.918;2023-04-15T11:30:35;26.20;70.60
43049;DHT22;28673;44.412;11.918;2023-04-15T11:33:04;26.40;70.30
43049;DHT22;28673;44.412;11.918;2023-04-15T11:35:39;26.70;70.80
43049;DHT22;28673;44.412;11.918;2023-04-15T11:38:23;27.00;70.40
43049;DHT22;28673;44.412;11.918;2023-04-15T11:40:50;27.10;69.60
43049;DHT22;28673;44.412;11.918;2023-04-15T11:43:19;27.00;68.50
43049;DHT22;28673;44.412;11.918;2023-04-15T11:45:56;26.90;69.40
43049;DHT22;28673;44.412;11.918;2023-04-15T11:48:27;27.00;69.10
43049;DHT22;28673;44.412;11.918;2023-04-15T11:51:04;27.10;68.60
43049;DHT22;28673;44.412;11.918;2023-04-15T11:53:40;26.70;67.20
43049;DHT22;28673;44.412;11.918;2023-04-15T11:56:07;26.20;69.10
43049;DHT22;28673;44.412;11.918;2023-04-15T11:58:35;26.10;70.30
43049;DHT22;28673;44.412;11.918;2023-04-15T12:01:07;25.90;69.10
43049;DHT22;28673;44.412;11.918;2023-04-15T12:03:46;25.40;71.50
43049;DHT22;28673;44.412;11.918;2023-04-15T12:06:32;25.00;71.20
43049;DHT22;28673;44.412;11.918;2023-04-15T12:09:07;24.70;75.30
43049;DHT22;28673;44.412;11.918;2023-04-15T12:11:49;24.30;77.20
43049;DHT22;28673;44.412;11.918;2023-04-15T12:14:32;24.20;77.70
43049;DHT22;28673;44.412;11.918;2023-04-15T12:16:59;24.20;80.00
43049;DHT22;28673;44.412;11.918;2023-04-15T12:19:34;24.20;78.70
43049;DHT22;28673;44.412;11.918;2023-04-15T12:22:06;24.30;79.30
43049;DHT22;28673;44.412;11.918;2023-04-15T12:24:37;24.50;79.10
43049;DHT22;28673;44.412;11.918;2023-04-15T12:27:07;24.50;78.50
43049;DHT22;28673;44.412;11.918;2023-04-15T12:29:35;24.50;78.00
43049;DHT22;28673;44.412;11.918;2023-04-15T12:32:12;24.50;78.40
43049;DHT22;28673;44.412;11.918;2023-04-15T12:34:51;24.60;79.30
43049;DHT22;28673;44.412;11.918;2023-04-15T12:37:20;24.60;77.30
43049;DHT22;28673;44.412;11.918;2023-04-15T12:39:48;24.80;78.60
43049;DHT22;28673;44.412;11.918;2023-04-15T12:42:15;24.90;78.40
43049;DHT22;28673;44.412;11.918;2023-04-15T12:44:41;25.00;78.80
43049;DHT22;28673;44.412;11.918;2023-04-15T12:47:08;25.10;79.20
43049;DHT22;28673;44.412;11.918;2023-04-15T12:49:35;25.10;77.20
43049;DHT22;28673;44.412;11.918;2023-04-15T12:52:01;25.00;77.30
43049;DHT22;28673;44.412;11.918;2023-04-15T12:54:29;24.90;76.90
43049;DHT22;28673;44.412;11.918;2023-04-15T12:56:55;24.80;78.10
43049;DHT22;28673;44.412;11.918;2023-04-15T12:59:21;25.00;77.70
43049;DHT22;28673;44.412;11.918;2023-04-15T13:01:48;25.00;77.60
43049;DHT22;28673;44.412;11.918;2023-04-15T13:04:15;25.10;76.40
43049;DHT22;28673;44.412;11.918;2023-04-15T13:06:41;24.70;76.20
43049;DHT22;28673;44.412;11.918;2023-04-15T13:09:08;24.40;77.10
43049;DHT22;28673;44.412;11.918;2023-04-15T13:11:34;24.20;77.10
43049;DHT22;28673;44.412;11.918;2023-04-15T13:14:04;24.10;77.20
43049;DHT22;28673;44.412;11.918;2023-04-15T13:16:31;24.20;76.90
43049;DHT22;28673;44.412;11.918;2023-04-15T13:19:01;24.00;76.80
43049;DHT22;28673;44.412;11.918;2023-04-15T13:21:28;23.70;75.80
43049;DHT22;28673;44.412;11.918;2023-04-15T13:23:54;23.60;76.80
43049;DHT22;28673;44.412;11.918;2023-04-15T13:26:20;23.80;77.80
43049;DHT22;28673;44.412;11.918;2023-04-15T13:28:46;23.90;77.20
43049;DHT22;28673;44.412;11.918;2023-04-15T13:31:12;24.00;77.20
43049;DHT22;28673;44.412;11.918;2023-04-15T13:33:38;24.30;77.60
43049;DHT22;28673;44.412;11.918;2023-04-15T13:36:05;24.50;76.50
43049;DHT22;28673;44.412;11.918;2023-04-15T13:38:31;24.60;76.60
43049;DHT22;28673;44.412;11.918;2023-04-15T13:40:57;24.60;74.60
43049;DHT22;28673;44.412;11.918;2023-04-15T13:43:23;24.60;75.30
43049;DHT22;28673;44.412;11.918;2023-04-15T13:45:49;24.90;75.30
43049;DHT22;28673;44.412;11.918;2023-04-15T13:48:15;25.10;74.50
43049;DHT22;28673;44.412;11.918;2023-04-15T13:50:40;25.40;74.70
43049;DHT22;28673;44.412;11.918;2023-04-15T13:53:10;25.50;74.40
43049;DHT22;28673;44.412;11.918;2023-04-15T13:55:39;25.60;73.60
43049;DHT22;28673;44.412;11.918;2023-04-15T13:58:08;25.60;73.60
43049;DHT22;28673;44.412;11.918;2023-04-15T14:00:34;25.60;72.60
43049;DHT22;28673;44.412;11.918;2023-04-15T14:03:00;25.50;73.40
43049;DHT22;28673;44.412;11.918;2023-04-15T14:05:26;25.40;72.90
43049;DHT22;28673;44.412;11.918;2023-04-15T14:07:52;25.30;73.70
43049;DHT22;28673;44.412;11.918;2023-04-15T14:10:25;25.30;73.30
43049;DHT22;28673;44.412;11.918;2023-04-15T14:12:51;25.20;72.00
43049;DHT22;28673;44.412;11.918;2023-04-15T14:15:17;24.90;73.20
43049;DHT22;28673;44.412;11.918;2023-04-15T14:17:43;24.90;72.80
43049;DHT22;28673;44.412;11.918;2023-04-15T14:20:09;24.90;73.60
43049;DHT22;28673;44.412;11.918;2023-04-15T14:22:39;25.00;73.10
43049;DHT22;28673;44.412;11.918;2023-04-15T14:25:05;25.10;72.60
43049;DHT22;28673;44.412;11.918;2023-04-15T14:27:31;25.20;72.80
43049;DHT22;28673;44.412;11.918;2023-04-15T14:29:56;25.20;73.10
43049;DHT22;28673;44.412;11.918;2023-04-15T14:32:24;25.30;70.70
43049;DHT22;28673;44.412;11.918;2023-04-15T14:34:51;25.30;71.10
43049;DHT22;28673;44.412;11.918;2023-04-15T14:37:17;25.30;71.80
43049;DHT22;28673;44.412;11.918;2023-04-15T14:39:42;25.20;72.00
43049;DHT22;28673;44.412;11.918;2023-04-15T14:42:08;25.00;70.90
43049;DHT22;28673;44.412;11.918;2023-04-15T14:44:34;24.80;70.80
43049;DHT22;28673;44.412;11.918;2023-04-15T14:47:01;24.60;70.70
43049;DHT22;28673;44.412;11.918;2023-04-15T14:49:27;24.60;70.10
43049;DHT22;28673;44.412;11.918;2023-04-15T14:51:53;24.60;71.40
43049;DHT22;28673;44.412;11.918;2023-04-15T14:54:19;24.70;71.60
43049;DHT22;28673;44.412;11.918;2023-04-15T14:56:44;24.60;71.00
43049;DHT22;28673;44.412;11.918;2023-04-15T14:59:10;24.60;69.20
43049;DHT22;28673;44.412;11.918;2023-04-15T15:01:36;24.50;69.90
43049;DHT22;28673;44.412;11.918;2023-04-15T15:04:02;24.40;70.10
43049;DHT22;28673;44.412;11.918;2023-04-15T15:06:28;24.40;69.70
43049;DHT22;28673;44.412;11.918;2023-04-15T15:08:54;24.40;69.90
43049;DHT22;28673;44.412;11.918;2023-04-15T15:11:20;24.60;69.90
43049;DHT22;28673;44.412;11.918;2023-04-15T15:13:46;24.70;69.10
43049;DHT22;28673;44.412;11.918;2023-04-15T15:16:12;24.90;68.20
43049;DHT22;28673;44.412;11.918;2023-04-15T15:18:38;24.90;67.20
43049;DHT22;28673;44.412;11.918;2023-04-15T15:21:04;24.80;67.00
43049;DHT22;28673;44.412;11.918;2023-04-15T15:23:30;24.80;67.70
43049;DHT22;28673;44.412;11.918;2023-04-15T15:25:59;24.80;67.80
43049;DHT22;28673;44.412;11.918;2023-04-15T15:28:25;24.90;66.30
43049;DHT22;28673;44.412;11.918;2023-04-15T15:30:51;24.90;66.50
43049;DHT22;28673;44.412;11.918;2023-04-15T15:33:17;24.80;68.00